Time,TemperatureF,DewpointF,PressureIn,WindDirection,WindDirectionDegrees,WindSpeedMPH,WindSpeedGustMPH,Humidity,HourlyPrecipIn,Conditions,Clouds,dailyrainin,SolarRadiationWatts/m^2,SoftwareType,DateUTC
2013-09-07 00:02:00,73.0,49.0,-100.00,ESE,106,16.0,26.0,42,0.00,,,0.01,0.000000,,2013-09-07 06:02:00,
2013-09-07 00:13:00,73.0,49.0,-100.00,ESE,106,16.0,26.0,42,0.00,,,0.01,0.000000,,2013-09-07 06:13:00,
2013-09-07 00:21:00,73.0,49.0,-100.00,ESE,106,16.0,26.0,42,0.00,,,0.01,0.000000,,2013-09-07 06:21:00,
2013-09-07 00:52:00,74.0,50.0,-100.00,East,101,14.0,29.0,43,0.00,,,0.01,0.000000,,2013-09-07 06:52:00,
2013-09-07 01:02:00,74.0,50.0,-100.00,East,101,14.0,29.0,43,0.00,,,0.01,0.000000,,2013-09-07 07:02:00,
2013-09-07 01:12:00,74.0,50.0,-100.00,East,101,14.0,29.0,43,0.00,,,0.01,0.000000,,2013-09-07 07:12:00,
2013-09-07 01:22:00,74.0,50.0,-100.00,East,101,14.0,29.0,43,0.00,,,0.01,0.000000,,2013-09-07 07:22:00,
2013-09-07 01:52:00,73.0,50.0,-100.00,ESE,105,12.0,22.0,45,0.00,,,0.01,0.000000,,2013-09-07 07:52:00,
2013-09-07 02:02:00,73.0,50.0,-100.00,ESE,105,12.0,22.0,45,0.00,,,0.01,0.000000,,2013-09-07 08:02:00,
2013-09-07 02:12:00,73.0,50.0,-100.00,ESE,105,12.0,22.0,45,0.00,,,0.01,0.000000,,2013-09-07 08:12:00,
2013-09-07 02:22:00,73.0,50.0,-100.00,ESE,105,12.0,22.0,45,0.00,,,0.01,0.000000,,2013-09-07 08:22:00,
2013-09-07 02:53:00,71.0,50.0,-100.00,East,100,13.0,23.0,47,0.00,,,0.01,0.000000,,2013-09-07 08:53:00,
2013-09-07 03:02:00,71.0,50.0,-100.00,East,100,13.0,23.0,47,0.00,,,0.01,0.000000,,2013-09-07 09:02:00,
2013-09-07 03:12:00,71.0,50.0,-100.00,East,100,13.0,23.0,47,0.00,,,0.01,0.000000,,2013-09-07 09:12:00,
2013-09-07 03:21:00,71.0,50.0,-100.00,East,100,13.0,23.0,47,0.00,,,0.01,0.000000,,2013-09-07 09:21:00,
2013-09-07 03:52:00,71.0,49.0,-100.00,East,98,13.0,24.0,46,0.00,,,0.01,0.000000,,2013-09-07 09:52:00,
2013-09-07 04:02:00,71.0,49.0,-100.00,East,98,13.0,24.0,46,0.00,,,0.01,0.000000,,2013-09-07 10:02:00,
2013-09-07 04:11:00,71.0,49.0,-100.00,East,98,13.0,24.0,46,0.00,,,0.01,0.000000,,2013-09-07 10:11:00,
2013-09-07 04:21:00,71.0,49.0,-100.00,East,98,13.0,24.0,46,0.00,,,0.01,0.000000,,2013-09-07 10:21:00,
2013-09-07 04:52:00,72.0,51.0,-100.00,East,95,13.0,24.0,47,0.00,,,0.01,0.000000,,2013-09-07 10:52:00,
2013-09-07 05:03:00,72.0,51.0,-100.00,East,95,13.0,24.0,47,0.00,,,0.01,0.000000,,2013-09-07 11:03:00,
2013-09-07 05:13:00,72.0,51.0,-100.00,East,95,13.0,24.0,47,0.00,,,0.01,0.000000,,2013-09-07 11:13:00,
2013-09-07 05:23:00,72.0,51.0,-100.00,East,95,13.0,24.0,47,0.00,,,0.01,0.000000,,2013-09-07 11:23:00,
2013-09-07 05:52:00,71.0,49.0,-100.00,ESE,106,16.0,24.0,46,0.00,,,0.01,0.000000,,2013-09-07 11:52:00,
2013-09-07 06:02:00,71.0,49.0,-100.00,ESE,106,16.0,24.0,46,0.00,,,0.01,0.000000,,2013-09-07 12:02:00,
2013-09-07 06:12:00,71.0,49.0,-100.00,ESE,106,16.0,24.0,46,0.00,,,0.01,0.000000,,2013-09-07 12:12:00,
2013-09-07 06:22:00,71.0,49.0,-100.00,ESE,106,16.0,24.0,46,0.00,,,0.01,0.000000,,2013-09-07 12:22:00,
2013-09-07 06:52:00,71.0,49.0,-100.00,ESE,106,15.0,23.0,45,0.00,,,0.01,0.000000,,2013-09-07 12:52:00,
2013-09-07 07:02:00,71.0,49.0,-100.00,ESE,106,15.0,23.0,45,0.00,,,0.01,0.000000,,2013-09-07 13:02:00,
2013-09-07 07:12:00,71.0,49.0,-100.00,ESE,106,15.0,23.0,45,0.00,,,0.01,0.000000,,2013-09-07 13:12:00,
2013-09-07 07:21:00,71.0,49.0,-100.00,ESE,106,15.0,23.0,45,0.00,,,0.01,0.000000,,2013-09-07 13:21:00,
2013-09-07 07:52:00,72.0,50.0,-100.00,ESE,103,17.0,26.0,46,0.00,,,0.01,14.000000,,2013-09-07 13:52:00,
2013-09-07 08:02:00,72.0,50.0,-100.00,ESE,103,17.0,26.0,46,0.00,,,0.01,14.000000,,2013-09-07 14:02:00,
2013-09-07 08:11:00,72.0,50.0,-100.00,ESE,103,17.0,26.0,46,0.00,,,0.01,14.000000,,2013-09-07 14:11:00,
2013-09-07 08:22:00,72.0,50.0,-100.00,ESE,103,17.0,26.0,46,0.00,,,0.01,14.000000,,2013-09-07 14:22:00,
2013-09-07 08:52:00,73.0,52.0,-100.00,ESE,106,15.0,27.0,47,0.00,,,0.01,98.000000,,2013-09-07 14:52:00,
2013-09-07 09:02:00,73.0,52.0,-100.00,ESE,106,15.0,27.0,47,0.00,,,0.01,98.000000,,2013-09-07 15:02:00,
2013-09-07 09:11:00,73.0,52.0,-100.00,ESE,106,15.0,27.0,47,0.00,,,0.01,98.000000,,2013-09-07 15:11:00,
2013-09-07 09:23:00,73.0,52.0,-100.00,ESE,106,15.0,27.0,47,0.00,,,0.01,98.000000,,2013-09-07 15:23:00,
2013-09-07 09:54:00,76.0,51.0,-100.00,ESE,103,11.0,21.0,41,0.00,,,0.01,483.000000,,2013-09-07 15:54:00,
2013-09-07 10:03:00,76.0,51.0,-100.00,ESE,103,11.0,21.0,41,0.00,,,0.01,483.000000,,2013-09-07 16:03:00,
2013-09-07 10:13:00,76.0,51.0,-100.00,ESE,103,11.0,21.0,41,0.00,,,0.01,483.000000,,2013-09-07 16:13:00,
2013-09-07 10:24:00,76.0,51.0,-100.00,ESE,103,11.0,21.0,41,0.00,,,0.01,483.000000,,2013-09-07 16:24:00,
2013-09-07 10:53:00,78.0,50.0,-100.00,ESE,116,9.0,18.0,38,0.00,,,0.01,728.000000,,2013-09-07 16:53:00,
2013-09-07 11:04:00,78.0,50.0,-100.00,ESE,116,9.0,18.0,38,0.00,,,0.01,728.000000,,2013-09-07 17:04:00,
2013-09-07 11:12:00,78.0,50.0,-100.00,ESE,116,9.0,18.0,38,0.00,,,0.01,728.000000,,2013-09-07 17:12:00,
2013-09-07 11:24:00,78.0,50.0,-100.00,ESE,116,9.0,18.0,38,0.00,,,0.01,728.000000,,2013-09-07 17:24:00,
2013-09-07 11:52:00,81.0,51.0,-100.00,ESE,121,9.0,17.0,35,0.00,,,0.01,944.000000,,2013-09-07 17:52:00,
2013-09-07 12:01:00,81.0,51.0,-100.00,ESE,121,9.0,17.0,35,0.00,,,0.01,944.000000,,2013-09-07 18:01:00,
2013-09-07 12:13:00,81.0,51.0,-100.00,ESE,121,9.0,17.0,35,0.00,,,0.01,944.000000,,2013-09-07 18:13:00,
2013-09-07 12:22:00,81.0,51.0,-100.00,ESE,121,9.0,17.0,35,0.00,,,0.01,944.000000,,2013-09-07 18:22:00,
2013-09-07 12:52:00,81.0,49.0,-100.00,SE,139,11.0,19.0,33,0.00,,,0.01,1061.000000,,2013-09-07 18:52:00,
2013-09-07 13:02:00,81.0,49.0,-100.00,SE,139,11.0,19.0,33,0.00,,,0.01,1061.000000,,2013-09-07 19:02:00,
2013-09-07 13:11:00,81.0,49.0,-100.00,SE,139,11.0,19.0,33,0.00,,,0.01,1061.000000,,2013-09-07 19:11:00,
2013-09-07 13:22:00,81.0,49.0,-100.00,SE,139,11.0,19.0,33,0.00,,,0.01,1061.000000,,2013-09-07 19:22:00,
2013-09-07 13:52:00,84.0,51.0,-100.00,SW,221,5.0,22.0,32,0.00,,,0.01,1104.000000,,2013-09-07 19:52:00,
2013-09-07 14:02:00,84.0,51.0,-100.00,SW,221,5.0,22.0,32,0.00,,,0.01,1104.000000,,2013-09-07 20:02:00,
2013-09-07 14:11:00,84.0,51.0,-100.00,SW,221,5.0,22.0,32,0.00,,,0.01,1104.000000,,2013-09-07 20:11:00,
2013-09-07 14:22:00,84.0,51.0,-100.00,SW,221,5.0,22.0,32,0.00,,,0.01,1104.000000,,2013-09-07 20:22:00,
2013-09-07 14:53:00,85.0,50.0,-100.00,East,81,6.0,24.0,30,0.00,,,0.01,1044.000000,,2013-09-07 20:53:00,
2013-09-07 15:02:00,85.0,50.0,-100.00,East,81,6.0,24.0,30,0.00,,,0.01,1044.000000,,2013-09-07 21:02:00,
2013-09-07 15:12:00,85.0,50.0,-100.00,East,81,6.0,24.0,30,0.00,,,0.01,1044.000000,,2013-09-07 21:12:00,
2013-09-07 15:22:00,85.0,50.0,-100.00,East,81,6.0,24.0,30,0.00,,,0.01,1044.000000,,2013-09-07 21:22:00,
2013-09-07 15:54:00,84.0,48.0,-100.00,SW,231,8.0,25.0,29,0.00,,,0.01,693.000000,,2013-09-07 21:54:00,
2013-09-07 16:04:00,84.0,48.0,-100.00,SW,231,8.0,25.0,29,0.00,,,0.01,693.000000,,2013-09-07 22:04:00,
2013-09-07 16:13:00,84.0,48.0,-100.00,SW,231,8.0,25.0,29,0.00,,,0.01,693.000000,,2013-09-07 22:13:00,
2013-09-07 16:24:00,84.0,48.0,-100.00,SW,231,8.0,25.0,29,0.00,,,0.01,693.000000,,2013-09-07 22:24:00,
2013-09-07 16:53:00,86.0,46.0,-100.00,SE,126,8.0,22.0,25,0.00,,,0.01,770.000000,,2013-09-07 22:53:00,
2013-09-07 17:03:00,86.0,46.0,-100.00,SE,126,8.0,22.0,25,0.00,,,0.01,770.000000,,2013-09-07 23:03:00,
2013-09-07 17:12:00,86.0,46.0,-100.00,SE,126,8.0,22.0,25,0.00,,,0.01,770.000000,,2013-09-07 23:12:00,
2013-09-07 17:23:00,86.0,46.0,-100.00,SE,126,8.0,22.0,25,0.00,,,0.01,770.000000,,2013-09-07 23:23:00,
2013-09-07 17:53:00,83.0,44.0,-100.00,ESE,121,11.0,25.0,25,0.00,,,0.01,601.000000,,2013-09-07 23:53:00,
2013-09-07 18:02:00,83.0,44.0,-100.00,ESE,121,11.0,25.0,25,0.00,,,0.01,601.000000,,2013-09-08 00:02:00,
2013-09-07 18:11:00,83.0,44.0,-100.00,ESE,121,11.0,25.0,25,0.00,,,0.01,601.000000,,2013-09-08 00:11:00,
2013-09-07 18:22:00,83.0,44.0,-100.00,ESE,121,11.0,25.0,25,0.00,,,0.01,601.000000,,2013-09-08 00:22:00,
2013-09-07 18:52:00,81.0,42.0,-100.00,SE,125,14.0,25.0,25,0.00,,,0.00,327.000000,,2013-09-08 00:52:00,
2013-09-07 19:01:00,81.0,42.0,-100.00,SE,125,14.0,25.0,25,0.00,,,0.00,327.000000,,2013-09-08 01:01:00,
2013-09-07 19:11:00,81.0,42.0,-100.00,SE,125,14.0,25.0,25,0.00,,,0.00,327.000000,,2013-09-08 01:11:00,
2013-09-07 19:22:00,81.0,42.0,-100.00,SE,125,14.0,25.0,25,0.00,,,0.00,327.000000,,2013-09-08 01:22:00,
2013-09-07 19:52:00,78.0,37.0,-100.00,ESE,114,12.0,27.0,23,0.00,,,0.00,70.000000,,2013-09-08 01:52:00,
2013-09-07 20:02:00,78.0,37.0,-100.00,ESE,114,12.0,27.0,23,0.00,,,0.00,70.000000,,2013-09-08 02:02:00,
2013-09-07 20:12:00,78.0,37.0,-100.00,ESE,114,12.0,27.0,23,0.00,,,0.00,70.000000,,2013-09-08 02:12:00,
2013-09-07 20:23:00,78.0,37.0,-100.00,ESE,114,12.0,27.0,23,0.00,,,0.00,70.000000,,2013-09-08 02:23:00,
2013-09-07 20:52:00,78.0,40.0,-100.00,ESE,116,11.0,24.0,26,0.00,,,0.00,0.000000,,2013-09-08 02:52:00,
2013-09-07 21:02:00,78.0,40.0,-100.00,ESE,116,11.0,24.0,26,0.00,,,0.00,0.000000,,2013-09-08 03:02:00,
2013-09-07 21:12:00,78.0,40.0,-100.00,ESE,116,11.0,24.0,26,0.00,,,0.00,0.000000,,2013-09-08 03:12:00,
2013-09-07 21:22:00,78.0,40.0,-100.00,ESE,116,11.0,24.0,26,0.00,,,0.00,0.000000,,2013-09-08 03:22:00,
2013-09-07 21:54:00,76.0,41.0,-100.00,East,100,10.0,23.0,28,0.00,,,0.00,0.000000,,2013-09-08 03:54:00,
2013-09-07 22:02:00,-999.0,-99.9,-100.00,East,100,10.0,23.0,-999,-99.99,,,-99.99,0.000000,,2013-09-08 04:02:00,
2013-09-07 22:14:00,76.0,41.0,-100.00,East,100,10.0,23.0,28,0.00,,,0.00,0.000000,,2013-09-08 04:14:00,
2013-09-07 22:24:00,76.0,41.0,-100.00,East,100,10.0,23.0,28,0.00,,,0.00,0.000000,,2013-09-08 04:24:00,
2013-09-07 22:54:00,75.0,43.0,-100.00,East,90,12.0,23.0,32,0.00,,,0.00,0.000000,,2013-09-08 04:54:00,
2013-09-07 23:03:00,75.0,43.0,-100.00,East,90,12.0,23.0,32,0.00,,,0.00,0.000000,,2013-09-08 05:03:00,
2013-09-07 23:13:00,75.0,43.0,-100.00,East,90,12.0,23.0,32,0.00,,,0.00,0.000000,,2013-09-08 05:13:00,
2013-09-07 23:23:00,75.0,43.0,-100.00,East,90,12.0,23.0,32,0.00,,,0.00,0.000000,,2013-09-08 05:23:00,
2013-09-07 23:52:00,73.0,45.0,-100.00,ESE,103,14.0,25.0,37,0.00,,,0.00,0.000000,,2013-09-08 05:52:00,